Time;durP1;ratioP1;P1;durP2;ratioP2;P2;SDS_P1;SDS_P2;PMS_P1;PMS_P2;Temp;Humidity;BMP_temperature;BMP_pressure;BME280_temperature;BME280_humidity;BME280_pressure;Samples;Min_cycle;Max_cycle;Signal;HPM_P1;HPM_P2
2021/04/30 00:00:55;;;;;;;2.87;1.13;;;19.90;44.00;;;;;;5004902;28;20227;-93
2021/04/30 00:03:50;;;;;;;3.07;1.23;;;19.80;44.00;;;;;;4986613;28;20234;-92
2021/04/30 00:06:22;;;;;;;1.63;1.03;;;19.80;44.00;;;;;;4993918;28;20243;-93
2021/04/30 00:09:09;;;;;;;2.30;1.30;;;19.80;44.10;;;;;;4987083;28;20237;-92
2021/04/30 00:11:35;;;;;;;2.07;1.27;;;19.80;44.10;;;;;;4994894;28;20302;-92
2021/04/30 00:14:02;;;;;;;1.83;1.33;;;19.80;44.10;;;;;;4987999;28;20227;-91
2021/04/30 00:16:28;;;;;;;2.20;1.00;;;19.80;44.10;;;;;;5006989;28;20235;-90
2021/04/30 00:18:59;;;;;;;2.53;1.20;;;19.80;44.10;;;;;;5001504;28;20247;-90
2021/04/30 00:21:28;;;;;;;1.50;1.00;;;19.80;44.10;;;;;;4992861;28;20238;-91
2021/04/30 00:24:02;;;;;;;1.40;1.03;;;19.70;44.20;;;;;;4993015;28;20252;-91
2021/04/30 00:26:31;;;;;;;3.53;1.20;;;19.70;44.20;;;;;;4991244;28;20256;-89
2021/04/30 00:29:35;;;;;;;2.57;1.30;;;19.70;44.20;;;;;;4975167;28;20224;-90
2021/04/30 00:32:01;;;;;;;1.93;1.00;;;19.70;44.20;;;;;;4980957;28;20228;-90
2021/04/30 00:34:34;;;;;;;1.87;1.13;;;19.70;44.20;;;;;;4990208;28;20579;-91
2021/04/30 00:37:07;;;;;;;2.73;1.10;;;19.70;44.30;;;;;;4987686;28;20231;-91
2021/04/30 00:39:36;;;;;;;1.90;1.10;;;19.70;44.30;;;;;;4976122;28;20235;-91
2021/04/30 00:42:17;;;;;;;2.87;1.20;;;19.70;44.30;;;;;;4993705;28;20263;-89
2021/04/30 00:44:45;;;;;;;1.40;1.07;;;19.70;44.30;;;;;;5010286;28;20228;-92
2021/04/30 00:47:36;;;;;;;1.73;1.30;;;19.70;44.30;;;;;;4978054;28;20232;-91
2021/04/30 00:50:06;;;;;;;2.40;1.20;;;19.70;44.40;;;;;;4976406;28;20208;-90
2021/04/30 00:52:46;;;;;;;1.77;1.30;;;19.70;44.40;;;;;;4988319;28;20212;-93
2021/04/30 00:55:14;;;;;;;1.77;1.30;;;19.60;44.40;;;;;;4996881;28;20212;-91
2021/04/30 00:57:54;;;;;;;2.50;1.10;;;19.60;44.40;;;;;;4985930;28;20222;-93
2021/04/30 01:00:24;;;;;;;1.87;1.33;;;19.60;44.40;;;;;;5005151;28;20228;-91
2021/04/30 01:02:50;;;;;;;2.97;1.50;;;19.60;44.40;;;;;;4993939;28;20298;-92
2021/04/30 01:05:18;;;;;;;2.03;1.23;;;19.60;44.50;;;;;;4999767;28;20236;-90
2021/04/30 01:07:45;;;;;;;2.53;0.90;;;19.60;44.50;;;;;;4973408;28;20637;-92
2021/04/30 01:10:14;;;;;;;2.17;1.20;;;19.60;44.50;;;;;;4979264;28;20877;-91
2021/04/30 01:12:42;;;;;;;2.57;1.27;;;19.60;44.60;;;;;;4984947;28;20317;-89
2021/04/30 01:15:12;;;;;;;2.87;1.23;;;19.60;44.60;;;;;;4986791;28;20692;-91
2021/04/30 01:17:39;;;;;;;3.03;1.43;;;19.60;44.60;;;;;;5000960;28;20240;-91
2021/04/30 01:20:08;;;;;;;2.00;1.20;;;19.50;44.60;;;;;;5002256;28;20692;-93
2021/04/30 01:22:49;;;;;;;1.90;1.27;;;19.60;44.70;;;;;;5001358;28;20240;-90
2021/04/30 01:25:23;;;;;;;3.40;1.40;;;19.60;44.60;;;;;;4965763;28;20251;-92
2021/04/30 01:27:53;;;;;;;1.57;1.00;;;19.60;44.70;;;;;;4980852;28;20596;-91
2021/04/30 01:30:27;;;;;;;2.97;1.37;;;19.50;44.60;;;;;;4978890;28;20255;-93
2021/04/30 01:32:55;;;;;;;1.77;1.00;;;19.50;44.60;;;;;;4971401;28;20231;-92
2021/04/30 01:35:27;;;;;;;2.20;1.20;;;19.50;44.70;;;;;;4973477;28;20224;-90
2021/04/30 01:37:59;;;;;;;1.77;1.10;;;19.50;44.70;;;;;;4980585;28;20588;-93
2021/04/30 01:40:32;;;;;;;1.93;1.20;;;19.50;44.70;;;;;;4971242;28;20750;-93
2021/04/30 01:43:17;;;;;;;1.73;1.17;;;19.50;44.70;;;;;;5006337;28;20464;-91
2021/04/30 01:45:52;;;;;;;2.10;1.20;;;19.50;44.70;;;;;;4978442;28;20222;-92
2021/04/30 01:48:24;;;;;;;1.47;1.00;;;19.50;44.80;;;;;;4985238;28;20236;-92
2021/04/30 01:50:51;;;;;;;2.07;1.27;;;19.50;44.80;;;;;;4987937;28;20230;-93
2021/04/30 01:53:35;;;;;;;3.53;1.33;;;19.50;44.80;;;;;;4986607;28;20251;-93
2021/04/30 01:56:05;;;;;;;1.53;0.90;;;19.50;44.80;;;;;;4998760;28;20716;-93
2021/04/30 01:58:32;;;;;;;2.10;1.27;;;19.50;44.80;;;;;;4976382;28;20238;-92
2021/04/30 02:01:19;;;;;;;2.43;1.30;;;19.50;44.90;;;;;;4991477;28;20244;-93
2021/04/30 02:03:51;;;;;;;3.23;1.30;;;19.50;45.00;;;;;;5003484;28;20270;-92
2021/04/30 02:06:22;;;;;;;3.80;1.20;;;19.50;44.90;;;;;;4982581;28;20230;-92
2021/04/30 02:08:49;;;;;;;2.00;0.90;;;19.50;45.00;;;;;;4995575;28;20227;-92
2021/04/30 02:11:28;;;;;;;;;;;;;;;;;;;;;
2021/04/30 02:13:57;;;;;;;2.77;1.27;;;19.40;44.90;;;;;;4968293;28;20213;-93
2021/04/30 02:16:28;;;;;;;2.60;1.20;;;19.40;45.00;;;;;;4970539;28;20342;-92
2021/04/30 02:18:55;;;;;;;1.50;1.00;;;19.40;45.00;;;;;;4969743;28;20323;-91
2021/04/30 02:21:26;;;;;;;3.27;1.20;;;19.40;45.10;;;;;;4992826;28;20298;-93
2021/04/30 02:24:08;;;;;;;2.43;1.20;;;19.40;45.10;;;;;;4996447;28;20607;-93
2021/04/30 02:26:40;;;;;;;2.30;1.13;;;19.40;45.10;;;;;;4991698;28;20665;-94
2021/04/30 02:29:18;;;;;;;2.37;1.50;;;19.40;45.10;;;;;;4990143;28;20231;-93
2021/04/30 02:31:50;;;;;;;2.20;1.30;;;19.40;45.20;;;;;;4985368;28;20224;-93
2021/04/30 02:34:17;;;;;;;1.67;1.20;;;19.40;45.10;;;;;;4975005;28;20252;-89
2021/04/30 02:36:45;;;;;;;1.87;1.20;;;19.40;45.10;;;;;;4993552;28;20223;-88
2021/04/30 02:39:12;;;;;;;2.10;1.20;;;19.40;45.20;;;;;;4991509;28;20221;-87
2021/04/30 02:41:38;;;;;;;3.37;1.33;;;19.40;45.20;;;;;;4989704;28;20216;-89
2021/04/30 02:44:04;;;;;;;1.57;1.13;;;19.40;45.20;;;;;;4989151;28;20610;-90
2021/04/30 02:46:31;;;;;;;2.87;1.37;;;19.30;45.20;;;;;;5006355;28;20227;-90
2021/04/30 02:49:02;;;;;;;1.70;1.20;;;19.30;45.20;;;;;;4989870;28;20642;-90
2021/04/30 02:51:29;;;;;;;1.77;1.27;;;19.40;45.30;;;;;;4989178;28;20236;-91
2021/04/30 02:53:55;;;;;;;2.47;1.30;;;19.30;45.20;;;;;;5007119;28;20319;-90
2021/04/30 02:56:24;;;;;;;1.67;1.30;;;19.30;45.30;;;;;;4959958;28;20283;-91
2021/04/30 02:59:04;;;;;;;2.60;1.20;;;19.40;45.30;;;;;;4973770;28;20231;-90
2021/04/30 03:01:44;;;;;;;2.23;1.07;;;19.30;45.30;;;;;;4988003;28;20283;-91
2021/04/30 03:04:15;;;;;;;2.70;1.13;;;19.30;45.30;;;;;;4958484;28;20251;-92
2021/04/30 03:06:46;;;;;;;4.03;1.23;;;19.30;45.30;;;;;;4983612;28;20251;-92
2021/04/30 03:09:16;;;;;;;1.80;1.10;;;19.30;45.30;;;;;;4962730;28;20220;-92
2021/04/30 03:11:46;;;;;;;1.30;1.20;;;19.30;45.40;;;;;;5004072;28;20236;-92
2021/04/30 03:14:58;;;;;;;2.33;1.40;;;19.30;45.40;;;;;;4973028;28;20240;-93
2021/04/30 03:17:51;;;;;;;3.17;1.27;;;19.30;45.40;;;;;;4934738;28;20228;-91
2021/04/30 03:20:46;;;;;;;2.60;1.40;;;19.30;45.40;;;;;;4981846;28;20234;-91
2021/04/30 03:23:56;;;;;;;2.10;1.30;;;19.30;45.40;;;;;;4968504;28;20346;-92
2021/04/30 03:26:29;;;;;;;2.50;1.17;;;19.20;45.30;;;;;;4950677;28;20235;-93
2021/04/30 03:28:56;;;;;;;3.70;1.40;;;19.30;45.50;;;;;;5000608;28;20298;-93
2021/04/30 03:31:25;;;;;;;1.53;1.20;;;19.30;45.50;;;;;;4975403;28;20234;-93
2021/04/30 03:33:59;;;;;;;1.17;1.03;;;19.30;45.50;;;;;;4978988;28;20216;-93
2021/04/30 03:36:31;;;;;;;2.13;1.30;;;19.30;45.50;;;;;;4999573;28;20212;-93
2021/04/30 03:39:00;;;;;;;1.93;1.10;;;19.30;45.60;;;;;;4974644;28;20654;-92
2021/04/30 03:41:29;;;;;;;3.13;1.17;;;19.20;45.50;;;;;;4976219;28;20736;-92
2021/04/30 03:43:57;;;;;;;1.47;1.07;;;19.20;45.60;;;;;;5013915;28;20270;-92
2021/04/30 03:46:24;;;;;;;1.53;1.20;;;19.20;45.50;;;;;;4984251;28;20306;-89
2021/04/30 03:48:50;;;;;;;3.80;1.30;;;19.20;45.60;;;;;;4972404;28;20883;-89
2021/04/30 03:51:16;;;;;;;1.67;1.10;;;19.20;45.60;;;;;;5004104;28;20231;-89
2021/04/30 03:53:43;;;;;;;1.63;1.17;;;19.20;45.60;;;;;;4990235;28;20236;-89
2021/04/30 03:56:09;;;;;;;1.57;1.13;;;19.20;45.60;;;;;;5003474;28;20220;-90
2021/04/30 03:58:36;;;;;;;1.60;1.07;;;19.20;45.60;;;;;;4988631;28;20231;-88
2021/04/30 04:01:07;;;;;;;2.50;1.20;;;19.20;45.60;;;;;;4987713;28;20231;-91
2021/04/30 04:03:40;;;;;;;2.97;1.50;;;19.20;45.60;;;;;;5002808;28;20235;-91
2021/04/30 04:06:11;;;;;;;1.23;1.10;;;19.20;45.60;;;;;;4997439;28;20271;-90
2021/04/30 04:08:40;;;;;;;1.53;1.30;;;19.20;45.60;;;;;;5002840;28;20250;-91
2021/04/30 04:11:14;;;;;;;1.80;1.20;;;19.20;45.70;;;;;;4986754;28;20231;-89
2021/04/30 04:13:41;;;;;;;3.43;1.30;;;19.20;45.70;;;;;;4988841;28;20227;-89
2021/04/30 04:16:07;;;;;;;2.37;1.30;;;19.20;45.70;;;;;;5017323;28;20283;-90
2021/04/30 04:18:41;;;;;;;1.83;1.40;;;19.10;45.60;;;;;;4983657;28;20243;-91
2021/04/30 04:21:08;;;;;;;1.83;1.27;;;19.20;45.60;;;;;;4993137;28;20234;-88
2021/04/30 04:23:39;;;;;;;1.60;1.20;;;19.20;45.60;;;;;;4987563;28;20683;-89
2021/04/30 04:26:06;;;;;;;1.83;1.33;;;19.10;45.60;;;;;;4997922;28;20224;-89
2021/04/30 04:28:32;;;;;;;2.50;1.47;;;19.20;45.60;;;;;;5004483;28;20240;-88
2021/04/30 04:30:59;;;;;;;2.53;1.40;;;19.20;45.60;;;;;;4987807;28;20243;-89
2021/04/30 04:33:38;;;;;;;2.30;1.30;;;19.10;45.50;;;;;;4976520;28;20231;-89
2021/04/30 04:36:05;;;;;;;2.60;1.43;;;19.10;45.60;;;;;;4996895;28;20307;-88
2021/04/30 04:38:33;;;;;;;3.77;1.40;;;19.10;45.60;;;;;;4991214;28;20279;-89
2021/04/30 04:40:59;;;;;;;2.33;1.30;;;19.10;45.50;;;;;;4998759;28;20236;-90
2021/04/30 04:43:29;;;;;;;2.17;1.50;;;19.10;45.60;;;;;;5003733;28;20231;-90
2021/04/30 04:45:56;;;;;;;2.13;1.13;;;19.10;45.60;;;;;;4992404;28;20230;-90
2021/04/30 04:48:23;;;;;;;2.47;1.40;;;19.10;45.60;;;;;;4990086;28;20236;-89
2021/04/30 04:50:49;;;;;;;2.30;1.40;;;19.10;45.60;;;;;;4988256;28;20220;-88
2021/04/30 04:53:24;;;;;;;2.83;1.30;;;19.10;45.60;;;;;;4988019;28;20235;-88
2021/04/30 04:56:10;;;;;;;1.90;1.30;;;19.10;45.60;;;;;;4971644;28;20359;-89
2021/04/30 04:58:41;;;;;;;1.83;1.13;;;19.10;45.60;;;;;;4993439;28;20228;-89
2021/04/30 05:01:07;;;;;;;2.97;1.40;;;19.10;45.60;;;;;;4999175;28;20255;-90
2021/04/30 05:03:34;;;;;;;2.63;1.17;;;19.10;45.60;;;;;;4994985;28;20315;-91
2021/04/30 05:06:01;;;;;;;3.27;1.80;;;19.10;45.60;;;;;;4987886;28;20889;-89
2021/04/30 05:08:28;;;;;;;2.00;1.27;;;19.10;45.60;;;;;;4996286;28;20224;-86
2021/04/30 05:11:04;;;;;;;2.40;1.60;;;19.10;45.60;;;;;;4981487;28;20227;-90
2021/04/30 05:13:35;;;;;;;2.07;1.50;;;19.10;45.60;;;;;;4986953;28;20238;-89
2021/04/30 05:16:04;;;;;;;2.33;1.30;;;19.10;45.70;;;;;;4991858;28;20314;-91
2021/04/30 05:18:31;;;;;;;3.63;1.70;;;19.10;46.30;;;;;;4997655;28;20219;-92
2021/04/30 05:20:59;;;;;;;2.47;1.40;;;19.10;45.70;;;;;;4979836;28;20255;-92
2021/04/30 05:23:31;;;;;;;2.70;1.60;;;19.10;45.80;;;;;;4987566;28;20235;-92
2021/04/30 05:25:58;;;;;;;2.77;1.60;;;19.10;46.00;;;;;;4983140;28;20712;-86
2021/04/30 05:28:24;;;;;;;3.47;1.43;;;19.10;45.90;;;;;;5009802;28;20227;-91
2021/04/30 05:30:51;;;;;;;3.03;1.70;;;19.10;45.90;;;;;;5021222;28;20220;-91
2021/04/30 05:33:17;;;;;;;6.53;2.27;;;19.10;46.00;;;;;;5027151;28;20226;-89
2021/04/30 05:35:43;;;;;;;11.13;3.13;;;19.10;46.10;;;;;;5030019;28;20219;-88
2021/04/30 05:38:09;;;;;;;12.80;3.10;;;19.00;46.10;;;;;;5013252;28;20220;-89
2021/04/30 05:40:36;;;;;;;11.87;3.90;;;19.10;46.10;;;;;;5028352;28;20252;-89
2021/04/30 05:43:03;;;;;;;13.13;3.77;;;19.10;46.20;;;;;;5006614;28;20221;-90
2021/04/30 05:45:29;;;;;;;11.17;3.70;;;19.10;46.20;;;;;;5007179;28;20239;-91
2021/04/30 05:47:55;;;;;;;11.97;3.70;;;19.10;46.20;;;;;;5018048;28;20224;-90
2021/04/30 05:50:22;;;;;;;9.17;3.37;;;19.10;46.20;;;;;;5026283;28;20223;-86
2021/04/30 05:52:48;;;;;;;8.77;3.37;;;19.10;46.10;;;;;;5015569;28;20219;-88
2021/04/30 05:55:14;;;;;;;12.27;3.23;;;19.10;46.10;;;;;;5009744;28;20224;-87
2021/04/30 05:57:41;;;;;;;10.20;3.33;;;19.10;46.00;;;;;;5011764;28;20965;-88
2021/04/30 06:00:10;;;;;;;7.40;3.10;;;19.10;46.20;;;;;;5013402;28;20386;-92
2021/04/30 06:02:37;;;;;;;9.17;2.73;;;19.10;46.10;;;;;;5028986;28;20231;-90
2021/04/30 06:05:06;;;;;;;9.37;3.20;;;19.10;46.20;;;;;;5014790;28;20257;-91
2021/04/30 06:07:33;;;;;;;11.40;3.07;;;19.10;46.40;;;;;;5002291;28;20389;-91
2021/04/30 06:10:03;;;;;;;5.03;3.03;;;19.10;46.40;;;;;;5020655;28;20239;-92
2021/04/30 06:12:32;;;;;;;21.63;6.27;;;19.10;46.40;;;;;;4998721;28;20244;-91
2021/04/30 06:15:05;;;;;;;35.13;8.23;;;19.10;46.70;;;;;;5002757;28;20252;-83
2021/04/30 06:17:37;;;;;;;22.93;6.63;;;19.00;48.30;;;;;;4990263;28;20221;-86
2021/04/30 06:20:07;;;;;;;33.57;7.90;;;19.20;48.90;;;;;;5013006;28;20247;-85
2021/04/30 06:22:48;;;;;;;32.30;8.23;;;19.20;49.50;;;;;;4992363;28;20263;-89
2021/04/30 06:25:14;;;;;;;20.37;6.80;;;19.20;48.90;;;;;;5009330;28;20251;-91
2021/04/30 06:27:43;;;;;;;18.63;7.17;;;19.20;48.00;;;;;;5004750;28;20533;-86
2021/04/30 06:30:10;;;;;;;22.30;7.47;;;19.20;47.50;;;;;;5009088;28;20247;-87
2021/04/30 06:32:38;;;;;;;18.60;6.47;;;19.10;47.40;;;;;;4989140;28;20232;-84
2021/04/30 06:35:09;;;;;;;18.20;6.37;;;19.30;48.70;;;;;;4986725;28;20703;-84
2021/04/30 06:37:39;;;;;;;20.23;5.70;;;19.40;48.20;;;;;;4992042;28;20231;-87
2021/04/30 06:40:09;;;;;;;14.03;5.60;;;19.50;47.80;;;;;;4991762;28;20232;-86
2021/04/30 06:42:35;;;;;;;12.23;5.10;;;19.60;47.50;;;;;;4982987;28;20243;-83
2021/04/30 06:45:06;;;;;;;11.90;5.00;;;19.60;46.90;;;;;;4991734;28;20235;-85
2021/04/30 06:47:34;;;;;;;13.67;5.17;;;19.70;48.30;;;;;;4991574;28;20224;-88
2021/04/30 06:50:01;;;;;;;11.77;5.03;;;19.70;47.00;;;;;;4965153;28;20236;-84
2021/04/30 06:52:27;;;;;;;12.80;5.37;;;19.80;47.00;;;;;;4995366;28;20218;-85
2021/04/30 06:54:56;;;;;;;8.50;4.30;;;19.90;46.90;;;;;;5003668;28;20227;-83
2021/04/30 06:57:41;;;;;;;8.97;4.90;;;19.90;46.70;;;;;;4993423;28;20219;-83
2021/04/30 07:00:09;;;;;;;11.30;4.33;;;19.90;46.30;;;;;;4992410;28;20731;-83
2021/04/30 07:02:36;;;;;;;10.37;4.30;;;19.90;46.60;;;;;;4986616;28;20307;-83
2021/04/30 07:05:03;;;;;;;11.17;4.93;;;19.90;46.30;;;;;;4985410;28;20229;-89
2021/04/30 07:07:32;;;;;;;8.70;4.33;;;20.00;46.00;;;;;;4977842;28;20559;-85
2021/04/30 07:10:05;;;;;;;7.80;3.83;;;20.00;46.30;;;;;;4975266;28;20578;-83
2021/04/30 07:12:31;;;;;;;7.83;3.83;;;20.10;46.20;;;;;;4963586;28;20313;-88
2021/04/30 07:14:58;;;;;;;6.83;4.27;;;20.10;46.10;;;;;;4982618;28;20224;-89
2021/04/30 07:17:28;;;;;;;6.60;3.70;;;20.20;45.80;;;;;;4980055;28;20224;-90
2021/04/30 07:19:58;;;;;;;7.87;3.90;;;20.20;45.80;;;;;;4974679;28;20290;-88
2021/04/30 07:22:26;;;;;;;6.30;3.50;;;20.20;45.40;;;;;;4972835;28;20263;-86
2021/04/30 07:24:55;;;;;;;6.30;3.83;;;20.30;45.70;;;;;;4982663;28;20327;-88
2021/04/30 07:27:21;;;;;;;8.03;3.77;;;20.30;45.40;;;;;;5004876;28;20220;-85
2021/04/30 07:29:48;;;;;;;5.90;3.30;;;20.40;44.90;;;;;;4980684;28;20227;-84
2021/04/30 07:32:17;;;;;;;6.53;3.73;;;20.40;45.00;;;;;;4983157;28;20232;-83
2021/04/30 07:34:43;;;;;;;7.83;3.13;;;20.50;45.20;;;;;;4981208;28;20849;-84
2021/04/30 07:37:10;;;;;;;6.73;3.60;;;20.50;44.80;;;;;;4985890;28;20220;-85
2021/04/30 07:39:36;;;;;;;7.93;3.43;;;20.50;44.70;;;;;;4987031;28;20601;-81
2021/04/30 07:42:05;;;;;;;7.30;3.20;;;20.60;45.00;;;;;;4981714;28;20659;-86
2021/04/30 07:44:38;;;;;;;5.10;3.43;;;20.60;45.00;;;;;;4982422;28;20248;-88
2021/04/30 07:47:04;;;;;;;7.70;3.40;;;20.60;44.70;;;;;;4975810;28;20239;-84
2021/04/30 07:49:35;;;;;;;7.30;3.67;;;20.70;44.50;;;;;;4988890;28;20307;-83
2021/04/30 07:52:02;;;;;;;5.07;3.23;;;20.70;44.40;;;;;;5001797;28;20246;-82
2021/04/30 07:54:39;;;;;;;6.03;3.30;;;20.70;44.50;;;;;;4987329;28;20255;-83
2021/04/30 07:57:06;;;;;;;6.77;3.20;;;20.70;44.10;;;;;;4981039;28;20243;-82
2021/04/30 07:59:33;;;;;;;5.30;3.30;;;20.80;44.30;;;;;;4978844;28;20396;-83
2021/04/30 08:02:00;;;;;;;5.53;3.47;;;20.80;44.10;;;;;;4992653;28;20594;-81
2021/04/30 08:04:27;;;;;;;7.73;3.60;;;20.80;43.90;;;;;;4984752;28;20235;-84
2021/04/30 08:06:53;;;;;;;7.17;3.40;;;20.80;44.20;;;;;;4994235;28;20641;-85
2021/04/30 08:09:19;;;;;;;6.83;3.43;;;20.90;43.80;;;;;;4983710;28;20731;-80
2021/04/30 08:11:48;;;;;;;6.80;3.67;;;20.90;43.80;;;;;;4979646;28;20278;-83
2021/04/30 08:14:19;;;;;;;5.47;3.53;;;20.90;43.50;;;;;;4986859;28;20224;-84
2021/04/30 08:16:45;;;;;;;5.67;3.57;;;20.90;43.70;;;;;;4989875;28;20692;-83
2021/04/30 08:19:11;;;;;;;5.57;3.47;;;20.80;43.50;;;;;;4986515;28;20578;-85
2021/04/30 08:21:37;;;;;;;9.20;4.17;;;20.90;43.40;;;;;;4993700;28;20230;-85
2021/04/30 08:24:05;;;;;;;7.47;4.50;;;20.80;43.70;;;;;;4985590;28;20247;-83
2021/04/30 08:26:31;;;;;;;6.40;4.17;;;20.80;43.50;;;;;;4987774;28;20727;-84
2021/04/30 08:29:01;;;;;;;11.27;4.70;;;20.80;43.70;;;;;;4988695;28;20220;-83
2021/04/30 08:31:28;;;;;;;10.20;4.60;;;20.80;43.70;;;;;;4960331;28;20213;-84
2021/04/30 08:33:54;;;;;;;7.80;4.10;;;20.80;44.00;;;;;;4996527;28;20687;-84
2021/04/30 08:36:21;;;;;;;7.47;4.30;;;20.80;44.00;;;;;;4988019;28;20278;-86
2021/04/30 08:38:48;;;;;;;5.57;4.40;;;20.80;44.60;;;;;;4971892;28;20572;-86
2021/04/30 08:41:18;;;;;;;7.13;4.40;;;20.80;44.10;;;;;;4973561;28;20750;-89
2021/04/30 08:43:51;;;;;;;7.20;3.50;;;20.80;43.80;;;;;;4997088;28;20224;-92
2021/04/30 08:46:18;;;;;;;7.13;3.90;;;20.80;43.00;;;;;;4971173;28;20240;-90
2021/04/30 08:48:45;;;;;;;5.53;3.30;;;20.70;43.60;;;;;;4988391;28;20251;-89
2021/04/30 08:51:20;;;;;;;6.33;4.00;;;20.50;44.30;;;;;;4970641;28;20356;-84
2021/04/30 08:53:50;;;;;;;7.57;3.23;;;20.40;45.70;;;;;;4977695;28;20239;-83
2021/04/30 08:56:17;;;;;;;4.37;2.70;;;21.20;44.40;;;;;;4988115;28;20782;-84
2021/04/30 08:58:45;;;;;;;3.40;2.17;;;22.00;43.00;;;;;;4977586;28;20235;-86
2021/04/30 09:01:11;;;;;;;3.67;1.97;;;22.50;41.90;;;;;;4990632;28;20227;-85
2021/04/30 09:03:38;;;;;;;4.10;2.00;;;23.00;41.10;;;;;;4989317;28;20224;-83
2021/04/30 09:06:06;;;;;;;3.20;1.83;;;23.30;40.70;;;;;;4990411;28;21453;-85
2021/04/30 09:08:46;;;;;;;3.53;1.80;;;23.50;40.30;;;;;;4989376;28;20785;-85
2021/04/30 09:11:32;;;;;;;5.50;2.07;;;23.80;40.10;;;;;;4988074;28;21533;-85
2021/04/30 09:14:20;;;;;;;4.23;1.67;;;23.90;39.90;;;;;;4980244;28;20228;-86
2021/04/30 09:17:17;;;;;;;2.07;1.43;;;24.20;39.50;;;;;;4988459;28;21133;-86
2021/04/30 09:19:50;;;;;;;2.10;1.43;;;24.30;39.40;;;;;;4984546;28;20536;-84
2021/04/30 09:22:40;;;;;;;2.53;1.40;;;24.50;39.10;;;;;;4977184;28;20247;-90
2021/04/30 09:25:12;;;;;;;3.23;1.83;;;24.70;38.80;;;;;;4979678;28;20227;-86
2021/04/30 09:27:44;;;;;;;2.63;1.33;;;24.80;38.70;;;;;;4967220;28;20290;-84
2021/04/30 09:30:25;;;;;;;3.03;1.60;;;24.90;38.40;;;;;;4966782;28;20451;-83
2021/04/30 09:33:14;;;;;;;2.90;1.70;;;25.10;38.40;;;;;;4974061;28;20643;-83
2021/04/30 09:35:55;;;;;;;1.97;1.60;;;25.30;38.00;;;;;;4979466;28;21535;-87
2021/04/30 09:38:26;;;;;;;2.33;1.50;;;25.40;37.80;;;;;;4973704;28;20744;-85
2021/04/30 09:41:01;;;;;;;3.17;1.63;;;25.50;37.90;;;;;;4984646;28;20802;-85
2021/04/30 09:43:49;;;;;;;2.70;1.73;;;25.10;37.00;;;;;;4981246;28;20227;-87
2021/04/30 09:46:36;;;;;;;5.50;1.67;;;24.70;37.70;;;;;;4991339;28;20261;-85
2021/04/30 09:49:13;;;;;;;1.80;1.50;;;25.00;38.40;;;;;;4980904;28;20244;-83
2021/04/30 09:51:39;;;;;;;2.60;1.57;;;25.40;37.90;;;;;;4988768;28;20227;-82
2021/04/30 09:54:27;;;;;;;2.80;1.63;;;25.70;37.80;;;;;;4982896;28;20336;-85
2021/04/30 09:57:25;;;;;;;3.50;1.90;;;25.90;37.70;;;;;;4977668;28;20322;-83
2021/04/30 10:00:13;;;;;;;7.83;1.50;;;26.00;37.40;;;;;;4976844;28;20224;-84
2021/04/30 10:02:40;;;;;;;1.73;1.57;;;26.20;37.30;;;;;;4988122;28;20228;-84
2021/04/30 10:05:22;;;;;;;4.10;1.93;;;26.30;37.40;;;;;;4983909;28;20275;-85
2021/04/30 10:08:19;;;;;;;2.27;1.50;;;26.40;37.30;;;;;;4977585;28;20572;-86
2021/04/30 10:10:45;;;;;;;2.40;1.60;;;26.60;37.20;;;;;;4980148;28;20353;-84
2021/04/30 10:13:34;;;;;;;2.43;1.63;;;26.60;37.40;;;;;;4976876;28;20461;-88
2021/04/30 10:16:11;;;;;;;2.13;1.50;;;26.60;37.20;;;;;;4994705;28;20236;-91
2021/04/30 10:18:42;;;;;;;2.60;1.50;;;26.70;37.30;;;;;;4979429;28;20281;-86
2021/04/30 10:21:15;;;;;;;2.20;1.47;;;26.90;37.20;;;;;;4975878;28;20242;-88
2021/04/30 10:24:03;;;;;;;3.93;1.90;;;27.10;36.90;;;;;;4951215;28;20239;-86
2021/04/30 10:26:56;;;;;;;1.93;1.67;;;27.10;37.00;;;;;;4926980;28;20614;-85
2021/04/30 10:29:25;;;;;;;4.03;2.10;;;26.60;37.80;;;;;;4972393;28;20266;-86
2021/04/30 10:31:56;;;;;;;3.00;2.13;;;25.60;35.90;;;;;;4979165;28;20294;-85
2021/04/30 10:34:32;;;;;;;3.50;2.37;;;24.80;37.10;;;;;;4990248;28;20228;-86
2021/04/30 10:37:05;;;;;;;3.20;1.90;;;24.30;38.20;;;;;;5009285;28;20251;-86
2021/04/30 10:39:35;;;;;;;2.43;1.90;;;24.10;38.70;;;;;;4990511;28;20606;-86
2021/04/30 10:42:12;;;;;;;2.07;1.70;;;23.90;39.00;;;;;;4990668;28;20311;-87
2021/04/30 10:44:57;;;;;;;3.23;2.07;;;23.70;39.20;;;;;;4988811;28;20223;-86
2021/04/30 10:47:24;;;;;;;2.87;2.10;;;23.60;39.40;;;;;;4961389;28;20688;-90
2021/04/30 10:50:19;;;;;;;3.57;2.00;;;23.50;39.60;;;;;;4982119;28;20790;-87
2021/04/30 10:52:46;;;;;;;3.70;2.00;;;23.30;39.70;;;;;;5004538;28;21470;-87
2021/04/30 10:55:17;;;;;;;3.73;2.50;;;23.30;39.90;;;;;;4995695;28;20914;-88
2021/04/30 10:57:57;;;;;;;2.27;2.07;;;23.10;40.00;;;;;;4988645;28;20224;-87
2021/04/30 11:00:44;;;;;;;2.10;1.90;;;23.10;40.20;;;;;;4987929;28;20224;-88
2021/04/30 11:03:23;;;;;;;3.00;2.23;;;23.00;41.00;;;;;;4982982;28;20256;-87
2021/04/30 11:05:58;;;;;;;3.33;2.27;;;23.00;40.50;;;;;;4986346;28;20679;-86
2021/04/30 11:08:50;;;;;;;3.00;2.27;;;22.90;40.60;;;;;;4988701;28;20230;-86
2021/04/30 11:11:34;;;;;;;2.70;2.10;;;22.80;40.70;;;;;;4987650;28;20432;-87
2021/04/30 11:14:23;;;;;;;4.30;2.23;;;22.70;40.60;;;;;;4988631;28;20235;-88
2021/04/30 11:16:51;;;;;;;2.63;2.43;;;22.70;40.80;;;;;;5003996;28;20601;-89
2021/04/30 11:19:17;;;;;;;3.17;2.43;;;22.60;40.90;;;;;;5005153;28;20220;-89
2021/04/30 11:21:52;;;;;;;2.67;2.20;;;22.60;40.90;;;;;;4988469;28;20641;-87
2021/04/30 11:24:35;;;;;;;4.17;2.50;;;22.60;41.00;;;;;;5002946;28;20535;-88
2021/04/30 11:27:32;;;;;;;3.03;2.37;;;22.50;41.10;;;;;;4989154;28;20231;-87
2021/04/30 11:30:19;;;;;;;3.03;2.10;;;22.50;41.10;;;;;;4970116;28;20227;-87
2021/04/30 11:32:54;;;;;;;3.53;2.20;;;22.40;41.10;;;;;;4988447;28;20318;-89
2021/04/30 11:35:22;;;;;;;2.60;2.40;;;22.40;41.30;;;;;;5002635;28;20231;-89
2021/04/30 11:37:49;;;;;;;3.23;2.20;;;22.40;41.30;;;;;;4988949;28;20527;-90
2021/04/30 11:40:31;;;;;;;2.97;2.20;;;22.30;41.40;;;;;;4989873;28;20219;-89
2021/04/30 11:43:13;;;;;;;3.47;2.30;;;22.30;41.40;;;;;;5013232;28;20224;-90
2021/04/30 11:45:40;;;;;;;3.03;2.40;;;22.30;41.50;;;;;;4994947;28;20723;-89
2021/04/30 11:48:09;;;;;;;2.80;2.10;;;22.30;41.50;;;;;;4981051;28;20266;-86
2021/04/30 11:50:38;;;;;;;3.90;2.47;;;22.30;41.50;;;;;;4985500;28;20236;-85
2021/04/30 11:53:12;;;;;;;3.33;2.30;;;22.30;43.80;;;;;;4987666;28;20247;-86
2021/04/30 11:55:40;;;;;;;2.20;2.00;;;22.50;43.60;;;;;;4985087;28;20681;-87
2021/04/30 11:58:07;;;;;;;4.07;2.47;;;22.60;43.60;;;;;;4983344;28;20236;-90
2021/04/30 12:00:33;;;;;;;3.00;2.20;;;22.80;43.90;;;;;;5000443;28;21146;-82
2021/04/30 12:03:02;;;;;;;3.00;2.50;;;22.90;43.40;;;;;;4982998;28;20228;-88
2021/04/30 12:05:29;;;;;;;5.43;2.50;;;23.00;44.10;;;;;;4985906;28;20662;-87
2021/04/30 12:07:56;;;;;;;4.40;2.60;;;23.10;43.80;;;;;;4982580;28;20220;-89
2021/04/30 12:10:32;;;;;;;4.17;3.10;;;23.10;43.80;;;;;;4984278;28;20224;-86
2021/04/30 12:13:36;;;;;;;3.93;2.80;;;23.20;43.80;;;;;;4987135;28;20204;-89
2021/04/30 12:16:15;;;;;;;4.77;2.80;;;23.30;43.80;;;;;;4986220;28;20235;-86
2021/04/30 12:18:42;;;;;;;4.50;2.97;;;23.30;43.90;;;;;;4981884;28;20239;-86
2021/04/30 12:21:08;;;;;;;3.17;2.70;;;23.40;43.50;;;;;;4985910;28;20585;-86
2021/04/30 12:23:36;;;;;;;3.77;2.70;;;23.40;43.50;;;;;;4985254;28;20231;-90
2021/04/30 12:26:04;;;;;;;3.30;2.73;;;23.50;43.00;;;;;;4984685;28;20747;-84
2021/04/30 12:28:31;;;;;;;6.30;2.30;;;23.50;43.70;;;;;;4983391;28;20224;-85
2021/04/30 12:31:05;;;;;;;2.97;2.70;;;23.60;42.60;;;;;;4986934;28;20224;-94
2021/04/30 12:33:36;;;;;;;3.00;2.70;;;23.60;43.00;;;;;;4979164;28;20242;-86
2021/04/30 12:36:09;;;;;;;3.77;2.90;;;23.70;43.10;;;;;;4982942;28;20224;-88
2021/04/30 12:38:37;;;;;;;3.07;2.77;;;23.70;42.90;;;;;;4997564;28;20247;-85
2021/04/30 12:41:11;;;;;;;3.13;2.83;;;23.80;42.50;;;;;;4987216;28;20765;-84
2021/04/30 12:43:46;;;;;;;3.97;3.30;;;23.80;42.40;;;;;;4985615;28;20302;-89
2021/04/30 12:46:23;;;;;;;3.50;3.20;;;23.90;42.80;;;;;;4986375;28;20266;-86
2021/04/30 12:48:55;;;;;;;3.60;3.27;;;23.90;42.80;;;;;;4982396;28;21304;-82
2021/04/30 12:51:28;;;;;;;4.00;3.60;;;23.90;42.80;;;;;;4985062;28;20223;-86
2021/04/30 12:53:55;;;;;;;3.73;2.80;;;23.90;43.00;;;;;;4982975;28;20228;-86
2021/04/30 12:56:30;;;;;;;2.47;2.27;;;24.00;43.10;;;;;;4985315;28;20227;-88
2021/04/30 12:59:32;;;;;;;3.23;2.70;;;24.00;42.60;;;;;;4995102;28;20257;-84
2021/04/30 13:02:09;;;;;;;3.33;2.53;;;24.00;42.80;;;;;;4967612;28;20259;-86
2021/04/30 13:04:45;;;;;;;3.17;2.73;;;24.10;42.30;;;;;;4991855;28;20720;-82
2021/04/30 13:07:13;;;;;;;3.50;2.97;;;24.10;40.80;;;;;;4998489;28;20226;-83
2021/04/30 13:09:41;;;;;;;2.80;2.50;;;23.90;42.60;;;;;;4994458;28;20231;-92
2021/04/30 13:12:10;;;;;;;3.03;2.77;;;23.90;41.70;;;;;;4998848;28;20258;-85
2021/04/30 13:14:53;;;;;;;5.27;2.50;;;24.00;41.60;;;;;;4997282;28;20235;-83